Pagrindinis puslapis
METAR-TAF:

METAR-TAF

Oro uostai :

Nuakšotas, Mauritanija

platuma: 18-18-36N, ilguma: 015-58-11W, Aukštis: 3 m

Dabartinis oras

Ataskaita buvo paskelbta 41 minutes, ne 20:30 UTC
Vėjas 7 kt iš Rytų/Šiaurės Rytų
Temperatūra 24°C
Drėgmė 19%
Slėgis 1014 hPa
Matomumas: 6000 m

METAR: GQNO 102030Z 07007KT 6000 NSC 24/M01 Q1014 NOSIG

Laikas: 21:11 (21:11 UTC)

Prognozė

Ataskaita buvo paskelbta 4 valandos ir 11 minutes, ne 17:00 UTC
Prognozė galioja nuo 10 metu 18 UTC su 11 metu 24 UTC
Vėjas 10 kt iš Šiaurės/Šiaurės Rytų
Matomumas: 4000 m
Dulkes pustymas
Tapsmas
nuo 10 metu 19 UTC su 10 metu 22 UTC
Matomumas: 6000 m
Tapsmas
nuo 11 metu 07 UTC su 11 metu 10 UTC
Vėjas 18 kt iš Rytų
Matomumas: 2000 m
Dulkes pustymas
Tapsmas
nuo 11 metu 16 UTC su 11 metu 19 UTC
Vėjas 12 kt iš Šiaurės/Šiaurės Rytų
Matomumas: 6000 m

TAF: GQNO 101700Z 1018/1124 03010KT 4000 BLDU NSC BECMG 1019/1022 6000 NSW BECMG 1107/1110 09018KT 2000 BLDU BECMG 1116/1119 03012KT 6000 NSW

Orai ataskaitas ir orų prognozės (METAR, TAF).

turimą stotys yra geltonos ir raudonos taškus žemėlapyje.

Perkelti pele per norėdami pamatyti stoties vardą.

Tada spustelėkite, norėdami matyti oro stebėjimo ir prognozės.

Norėdami pakeisti žemėlapį: spustelėkite ant žalios mygtukų su juodo kryžiaus žemyn,; žalią mygtuką su brūkšneliu, jei norite nutolinti; arba žalių rodyklių gretimoms žemėlapius.


METAR-TAF: